AirNav   Pilot Hours Calculator
 
 1170 users online  

2VA5 Rosegill Farm Airstrip
Urbanna, Virginia, USA

GOING TO URBANNA?


FAA INFORMATION EFFECTIVE 25 MARCH 2021

Location

FAA Identifier: 2VA5
Lat/Long: 37-37-50.5040N 076-33-53.8290W
37-37.841733N 076-33.897150W
37.6306956,-76.5649525
(estimated)
Elevation: 32 ft. / 9.8 m (surveyed)
Variation: 09W (1985)
From city: 1 mile E of URBANNA, VA
Time zone: UTC -4 (UTC -5 during Standard Time)
Zip code: 23149

Airport Operations

Airport use: Private use. Permission required prior to landing
Activation date: 11/1965
Control tower: no
ARTCC: WASHINGTON CENTER
FSS: LEESBURG FLIGHT SERVICE STATION
Attendance: UNATNDD
Wind indicator: yes
Segmented circle: no

Airport Communications

WX AWOS-3 at W75 (6 nm E): 118.45 (804-758-8592)
WX AWOS-3 at FYJ (11 nm SW): 132.825 (804-785-2307)

Nearby radio navigation aids

VOR radial/distance  VOR name  Freq  Var
HCMr040/13.0HARCUM VORTAC108.8007W
HPWr061/31.9HOPEWELL VORTAC112.0006W
CCVr312/31.9CAPE CHARLES VORTAC112.2010W
RICr087/36.7RICHMOND VORTAC114.1009W

Airport Services

Airframe service: NONE
Powerplant service: NONE

Runway Information

Runway 1/19

Dimensions: 2400 x 200 ft. / 732 x 61 m
Surface: turf
RUNWAY 1  RUNWAY 19
Traffic pattern: leftleft

Airport Ownership and Management from official FAA records

Ownership: Privately-owned
Owner: ALFRED P. SCOTT
PO BOX 6861
RICHMOND, VA 23230
Phone 804-353-1713

Additional Remarks

FOR CD CTC POTOMAC APCH AT 866-640-4124.

Instrument Procedures

There are no published instrument procedures at 2VA5.

Some nearby airports with instrument procedures:

W75 - Hummel Field Airport (6 nm E)
KFYJ - Middle Peninsula Regional Airport (11 nm SW)
W94 - Camp Peary Landing Strip Airport (19 nm S)
KXSA - Tappahannock-Essex County Airport (21 nm NW)
KJGG - Williamsburg-Jamestown Airport (25 nm S)
 
Loc | Ops | Rwys | IFR | FBO | Links
Com | Nav | Svcs | Stats | Notes
Area around 2VA5 (Rosegill Farm Airstrip)
 
Road maps at: MapQuest Bing Google
 
Aerial photo
WARNING: Photo may not be current or correct
Aerial photo of 2VA5 (Rosegill Farm Airstrip)
Do you have a better or more recent aerial photo of Rosegill Farm Airstrip that you would like to share? If so, please send us your photo.

 
Sectional chart

 
Airport distance calculator
Flying to Rosegill Farm Airstrip? Find the distance to fly.

From to 2VA5

Sunrise and sunset
Times for 12-Apr-2021
 Local
(UTC-4)
 Zulu
(UTC)
Morning civil twilight06:1010:10
Sunrise06:3710:37
Sunset19:3823:38
Evening civil twilight20:0500:05

Current date and time
Zulu (UTC)  12-Apr-2021 23:54:32
Local (UTC-4)  12-Apr-2021 19:54:32
 
METAR
KW75 
6nm E 
122335Z AUTO 02006KT 10SM OVC110 14/12 A2979 RMK AO1 T01400119
KFYJ 
12nm SW 
122335Z AUTO 04003KT 10SM BKN080 OVC100 15/11 A2979 RMK AO1 T01450110
TAF
KPHF 
30nm S 
121749Z 1218/1318 06008KT P6SM BKN070 FM130000 04007KT P6SM VCSH BKN025 FM130300 03006KT P6SM OVC015 FM130600 01006KT P6SM OVC007 FM131100 01008KT P6SM OVC015 FM131500 01010KT P6SM BKN025
KFAF 
31nm S 
121800Z 1218/1324 VRB06KT 9999 BKN050 QNH2965INS TEMPO 1223/1302 8000 -SHRA BKN010 BECMG 1302/1303 VRB06KT 8000 BR OVC010 QNH2980INS BECMG 1311/1312 36010G15KT 9999 NSW BKN020 OVC030 QNH2993INS BECMG 1321/1322 VRB06KT 9999 SCT025 QNH3001INS TX21/1219Z TN09/1311Z
KLFI 
35nm S 
121830Z 1218/1323 04006KT 9999 OVC100 QNH2987INS TEMPO 1219/1223 8000 -SHRA BKN080 OVC100 BECMG 1300/1301 VRB06KT 8000 BR BKN002 QNH2979INS BECMG 1306/1307 VRB06KT 9000 BR BKN010 QNH2987INS BECMG 1314/1315 05012KT 9999 NSW BKN020 QNH2987INS BECMG 1318/1319 02009KT 9999 FEW025 SCT050 QNH3005INS TX15/1218Z TN11/1306Z
KRIC 
36nm W 
121740Z 1218/1318 30007KT P6SM SCT050 BKN070 FM122300 33008KT P6SM VCSH SCT035 BKN060 FM130300 01005KT P6SM OVC025 FM130700 VRB03KT P6SM OVC010 FM131400 01009KT P6SM SCT025 BKN040
NOTAMs
Click for the latest NOTAMs
NOTAMs are issued by the DoD/FAA and will open in a separate window not controlled by AirNav.

 

 
 

Would you like to see your business listed on this page?

 If your business provides an interesting product or service to pilots, flight crews, aircraft, or users of the Rosegill Farm Airstrip, you should consider listing it here.  To start the listing process, click on the button below
 
Add a business
 

Other Pages about Rosegill Farm Airstrip

Update a link
 
Copyright © AirNav, LLC. All rights reserved. Privacy Policy  Contact